Time;durP1;ratioP1;P1;durP2;ratioP2;P2;SDS_P1;SDS_P2;PMS_P1;PMS_P2;Temp;Humidity;BMP_temperature;BMP_pressure;BME280_temperature;BME280_humidity;BME280_pressure;Samples;Min_cycle;Max_cycle;Signal;HPM_P1;HPM_P2
2022/07/05 00:00:54;;;;;;;7.32;5.28;;;;;;;13.15;81.99;102126.69;6306990;22;20057;-77
2022/07/05 00:03:19;;;;;;;8.73;5.45;;;;;;;13.15;81.55;102131.88;6278984;22;20008;-76
2022/07/05 00:05:44;;;;;;;8.05;5.28;;;;;;;13.08;81.57;102128.78;6278174;22;20349;-77
2022/07/05 00:08:10;;;;;;;8.32;5.53;;;;;;;13.03;81.87;102128.16;6307169;22;20010;-78
2022/07/05 00:10:36;;;;;;;10.02;5.55;;;;;;;12.72;82.51;102087.44;6306903;22;20007;-88
2022/07/05 00:13:03;;;;;;;8.80;5.32;;;;;;;12.82;82.52;102109.38;6307026;22;20007;-78
2022/07/05 00:15:28;;;;;;;8.93;5.40;;;;;;;12.75;82.94;102102.84;6306331;22;20033;-77
2022/07/05 00:17:54;;;;;;;7.80;5.70;;;;;;;12.68;82.96;102085.91;6306656;22;20078;-76
2022/07/05 00:20:19;;;;;;;8.27;5.45;;;;;;;12.84;83.18;102117.91;6306712;22;19995;-79
2022/07/05 00:22:44;;;;;;;7.65;4.90;;;;;;;12.78;83.41;102118.25;6278537;22;20003;-78
2022/07/05 00:25:10;;;;;;;8.55;5.43;;;;;;;12.82;84.23;102119.75;6306383;22;20003;-88
2022/07/05 00:27:35;;;;;;;9.80;6.07;;;;;;;12.79;84.41;102112.16;6306687;22;20031;-76
2022/07/05 00:30:01;;;;;;;10.02;6.28;;;;;;;12.77;84.53;102124.31;6306778;22;20007;-81
2022/07/05 00:32:26;;;;;;;9.05;6.15;;;;;;;12.74;84.65;102116.72;6306383;22;20007;-76
2022/07/05 00:34:51;;;;;;;9.10;6.38;;;;;;;12.72;85.06;102118.56;6307205;22;20007;-76
2022/07/05 00:37:17;;;;;;;9.35;6.43;;;;;;;12.56;85.03;102099.50;6306559;22;20010;-76
2022/07/05 00:39:43;;;;;;;9.95;5.63;;;;;;;12.57;85.36;102104.59;6306898;22;20007;-79
2022/07/05 00:42:08;;;;;;;9.32;5.88;;;;;;;12.24;85.12;102073.47;6306976;22;20003;-81
2022/07/05 00:44:36;;;;;;;7.57;5.60;;;;;;;12.47;85.17;102123.28;6306404;22;20049;-78
2022/07/05 00:47:03;;;;;;;10.07;6.60;;;;;;;12.25;85.12;102088.09;6306382;22;20003;-78
2022/07/05 00:49:29;;;;;;;9.98;5.68;;;;;;;12.20;85.31;102084.94;6306497;22;20007;-81
2022/07/05 00:51:55;;;;;;;9.07;6.05;;;;;;;12.35;85.61;102109.22;6306577;22;20333;-79
2022/07/05 00:54:20;;;;;;;8.57;6.15;;;;;;;12.21;85.81;102112.50;6306308;22;20010;-83
2022/07/05 00:56:46;;;;;;;10.13;6.15;;;;;;;12.25;86.38;102113.16;6306914;22;20015;-87
2022/07/05 00:59:11;;;;;;;16.83;6.80;;;;;;;12.23;86.38;102115.84;6306400;22;20003;-77
2022/07/05 01:01:37;;;;;;;9.88;6.65;;;;;;;12.23;86.13;102122.78;6306888;22;20006;-77
2022/07/05 01:04:02;;;;;;;12.32;6.43;;;;;;;12.10;85.86;102109.59;6306296;22;20003;-87
2022/07/05 01:06:28;;;;;;;8.40;6.30;;;;;;;12.17;86.26;102123.91;6306315;22;20310;-80
2022/07/05 01:08:53;;;;;;;10.15;6.35;;;;;;;12.03;87.02;102105.63;6306810;22;20011;-88
2022/07/05 01:11:18;;;;;;;8.75;6.30;;;;;;;12.11;87.02;102128.56;6306756;22;20006;-77
2022/07/05 01:13:44;;;;;;;10.15;6.15;;;;;;;12.06;87.91;102115.81;6306377;22;20363;-80
2022/07/05 01:16:10;;;;;;;8.65;5.97;;;;;;;12.00;87.05;102108.38;6306724;22;20019;-86
2022/07/05 01:18:36;;;;;;;9.48;6.72;;;;;;;12.10;87.22;102124.28;6279163;22;20007;-77
2022/07/05 01:21:02;;;;;;;10.13;6.80;;;;;;;11.79;87.07;102084.28;6306584;22;20066;-87
2022/07/05 01:23:29;;;;;;;9.77;6.82;;;;;;;11.84;87.00;102097.91;6306688;22;20003;-76
2022/07/05 01:25:56;;;;;;;9.73;6.82;;;;;;;11.87;87.15;102107.25;6306183;22;20459;-79
2022/07/05 01:28:21;;;;;;;9.73;6.70;;;;;;;11.87;87.48;102121.03;6306912;22;20000;-85
2022/07/05 01:30:47;;;;;;;10.20;6.70;;;;;;;11.58;87.92;102072.38;6306334;22;20073;-83
2022/07/05 01:33:13;;;;;;;12.52;7.10;;;;;;;11.83;87.97;102123.88;6306732;22;20007;-78
2022/07/05 01:35:38;;;;;;;10.38;6.47;;;;;;;11.80;88.28;102122.28;6308362;22;20425;-88
2022/07/05 01:38:04;;;;;;;11.82;7.60;;;;;;;11.68;88.39;102105.50;6309156;22;19999;-78
2022/07/05 01:40:29;;;;;;;9.27;6.65;;;;;;;11.40;88.08;102050.81;6309033;22;20010;-86
2022/07/05 01:42:55;;;;;;;8.15;6.10;;;;;;;11.72;88.17;102109.66;6308946;22;20026;-76
2022/07/05 01:45:39;;;;;;;9.10;6.20;;;;;;;11.63;88.46;102104.06;6309141;22;20004;-83
2022/07/05 01:48:08;;;;;;;9.23;6.13;;;;;;;11.52;88.71;102083.88;6308238;22;20007;-82
2022/07/05 01:50:38;;;;;;;8.90;6.72;;;;;;;11.63;88.52;102104.91;6308974;22;20030;-77
2022/07/05 01:53:04;;;;;;;9.70;5.97;;;;;;;11.28;88.76;102054.81;6308310;22;20356;-76
2022/07/05 01:55:30;;;;;;;12.00;6.35;;;;;;;11.41;89.23;102078.38;6308200;22;20003;-77
2022/07/05 01:57:55;;;;;;;9.48;6.75;;;;;;;11.61;89.51;102114.50;6280358;22;20093;-77
2022/07/05 02:00:21;;;;;;;11.77;6.65;;;;;;;11.60;89.59;102114.53;6308340;22;20010;-76
2022/07/05 02:02:46;;;;;;;10.10;7.45;;;;;;;11.39;89.39;102090.50;6280056;22;20007;-76
2022/07/05 02:05:13;;;;;;;12.70;7.75;;;;;;;11.54;89.20;102115.69;6308220;22;20429;-77
2022/07/05 02:07:49;;;;;;;10.23;7.80;;;;;;;11.46;89.71;102108.28;6307981;22;20003;-76
2022/07/05 02:10:15;;;;;;;11.70;8.23;;;;;;;11.49;90.30;102118.47;6309612;22;20583;-76
2022/07/05 02:12:40;;;;;;;11.45;8.10;;;;;;;11.52;90.48;102111.50;6309184;22;20424;-76
2022/07/05 02:15:06;;;;;;;10.30;7.40;;;;;;;11.49;90.63;102109.88;6307811;22;20110;-76
2022/07/05 02:17:31;;;;;;;8.98;6.57;;;;;;;11.46;89.62;102108.28;6307780;22;20010;-76
2022/07/05 02:19:57;;;;;;;8.98;6.57;;;;;;;11.44;89.44;102117.03;6307518;22;20482;-75
2022/07/05 02:22:23;;;;;;;10.27;7.00;;;;;;;11.29;89.70;102099.59;6280010;22;20007;-76
2022/07/05 02:24:48;;;;;;;10.68;6.53;;;;;;;11.18;89.89;102089.75;6307669;22;20004;-76
2022/07/05 02:27:13;;;;;;;10.75;6.68;;;;;;;11.26;89.83;102110.09;6307735;22;20006;-76
2022/07/05 02:29:39;;;;;;;11.30;7.53;;;;;;;10.92;89.90;102067.69;6307771;22;19999;-76
2022/07/05 02:32:04;;;;;;;10.43;7.80;;;;;;;11.18;90.15;102123.34;6307694;22;20417;-76
2022/07/05 02:34:30;;;;;;;9.98;7.70;;;;;;;11.19;90.65;102106.94;6307840;22;20003;-77
2022/07/05 02:36:55;;;;;;;11.95;7.78;;;;;;;10.94;90.42;102077.94;6307551;22;20003;-77
2022/07/05 02:39:21;;;;;;;10.40;7.38;;;;;;;11.11;90.57;102112.47;6308133;22;19999;-76
2022/07/05 02:41:46;;;;;;;10.23;7.78;;;;;;;10.78;90.62;102063.09;6307621;22;20005;-78
2022/07/05 02:44:11;;;;;;;9.13;7.10;;;;;;;11.06;90.87;102118.75;6307739;22;20302;-76
2022/07/05 02:46:38;;;;;;;11.10;8.02;;;;;;;11.07;91.04;102123.00;6307232;22;20004;-90
2022/07/05 02:49:03;;;;;;;11.38;8.13;;;;;;;10.87;91.21;102093.69;6307932;22;20010;-89
2022/07/05 02:51:29;;;;;;;9.77;8.05;;;;;;;11.14;91.54;102133.00;6308675;22;20077;-91
2022/07/05 02:53:54;;;;;;;10.38;7.28;;;;;;;10.91;91.06;102084.06;6308406;22;19999;-89
2022/07/05 02:56:20;;;;;;;11.15;8.25;;;;;;;10.95;91.13;102090.78;6280526;22;20007;-90
2022/07/05 02:58:45;;;;;;;12.82;8.10;;;;;;;10.94;91.06;102083.94;6307757;22;20023;-90
2022/07/05 03:01:10;;;;;;;9.55;7.28;;;;;;;10.88;90.84;102082.47;6279472;22;20003;-90
2022/07/05 03:03:36;;;;;;;11.85;7.82;;;;;;;11.00;91.45;102104.34;6307858;22;20010;-90
2022/07/05 03:06:01;;;;;;;10.98;7.47;;;;;;;10.87;91.21;102088.53;6280875;22;20022;-91
2022/07/05 03:08:26;;;;;;;12.90;7.75;;;;;;;11.12;91.24;102132.25;6280524;22;20006;-89
2022/07/05 03:10:52;;;;;;;10.95;8.15;;;;;;;11.14;91.58;102138.19;6308287;22;20063;-90
2022/07/05 03:13:17;;;;;;;14.05;7.97;;;;;;;11.09;91.51;102129.78;6307868;22;20006;-90
2022/07/05 03:15:42;;;;;;;12.50;8.25;;;;;;;11.02;91.22;102128.38;6307969;22;20341;-90
2022/07/05 03:18:08;;;;;;;12.80;7.97;;;;;;;10.91;91.19;102105.59;6307770;22;20061;-77
2022/07/05 03:20:33;;;;;;;11.55;8.77;;;;;;;11.07;91.55;102143.69;6306809;22;20015;-90
2022/07/05 03:22:59;;;;;;;11.35;8.13;;;;;;;11.03;91.64;102134.41;6309022;22;20005;-89
2022/07/05 03:25:24;;;;;;;11.50;8.30;;;;;;;10.88;91.55;102112.63;6281860;22;20011;-88
2022/07/05 03:27:50;;;;;;;10.43;7.82;;;;;;;11.05;91.79;102151.50;6307843;22;20007;-91
2022/07/05 03:30:15;;;;;;;12.45;8.40;;;;;;;11.05;91.79;102156.69;6307613;22;20007;-91
2022/07/05 03:32:40;;;;;;;11.23;8.52;;;;;;;10.88;91.38;102120.38;6279401;22;20003;-89
2022/07/05 03:35:06;;;;;;;12.50;8.80;;;;;;;10.72;91.55;102085.81;6307738;22;19995;-86
2022/07/05 03:37:31;;;;;;;12.07;9.18;;;;;;;11.07;91.92;102138.50;6308169;22;19999;-90
2022/07/05 03:39:57;;;;;;;15.25;9.45;;;;;;;11.11;92.64;102132.28;6308694;22;20480;-90
2022/07/05 03:42:22;;;;;;;12.68;9.40;;;;;;;10.94;92.70;102104.63;6308630;22;20006;-90
2022/07/05 03:44:47;;;;;;;14.07;9.65;;;;;;;11.30;92.73;102153.84;6308368;22;20010;-92
2022/07/05 03:47:14;;;;;;;12.95;9.48;;;;;;;11.18;92.83;102121.59;6308440;22;19999;-91
2022/07/05 03:49:39;;;;;;;12.73;9.63;;;;;;;11.46;92.53;102154.00;6307910;22;20053;-90
2022/07/05 03:52:04;;;;;;;14.70;10.00;;;;;;;11.48;92.64;102131.47;6307551;22;19999;-89
2022/07/05 03:54:30;;;;;;;12.50;9.98;;;;;;;11.60;92.39;102146.47;6307507;22;20080;-86
2022/07/05 03:56:55;;;;;;;16.52;10.63;;;;;;;11.56;92.79;102129.38;6307574;22;20003;-90
2022/07/05 03:59:20;;;;;;;16.75;11.32;;;;;;;11.69;92.75;102142.56;6279696;22;20056;-87
2022/07/05 04:01:46;;;;;;;13.75;9.98;;;;;;;11.86;92.92;102152.19;6307427;22;19999;-90
2022/07/05 04:04:11;;;;;;;13.98;10.85;;;;;;;11.94;93.00;102148.31;6307002;22;20010;-89
2022/07/05 04:06:36;;;;;;;14.73;10.98;;;;;;;11.78;93.02;102124.03;6279232;22;20008;-90
2022/07/05 04:09:02;;;;;;;16.13;11.00;;;;;;;11.91;93.31;102132.94;6307030;22;20007;-77
2022/07/05 04:11:27;;;;;;;13.73;10.65;;;;;;;12.10;93.11;102161.38;6279768;22;20070;-85
2022/07/05 04:13:52;;;;;;;13.90;10.30;;;;;;;11.99;92.86;102138.56;6307273;22;20034;-90
2022/07/05 04:16:18;;;;;;;13.95;10.85;;;;;;;12.23;93.16;102153.84;6307164;22;20041;-84
2022/07/05 04:18:43;;;;;;;13.95;10.88;;;;;;;12.35;93.47;102161.84;6307630;22;20000;-91
2022/07/05 04:21:08;;;;;;;15.07;10.77;;;;;;;12.38;93.24;102147.06;6279700;22;20056;-88
2022/07/05 04:23:34;;;;;;;16.90;12.27;;;;;;;12.55;93.17;102166.03;6306295;22;20007;-85
2022/07/05 04:26:00;;;;;;;15.63;12.18;;;;;;;12.61;93.38;102164.91;6306990;22;20019;-90
2022/07/05 04:28:26;;;;;;;15.60;11.88;;;;;;;12.67;93.18;102158.56;6307213;22;20003;-82
2022/07/05 04:30:51;;;;;;;16.08;12.63;;;;;;;12.51;93.79;102117.91;6306974;22;20010;-86
2022/07/05 04:33:17;;;;;;;17.20;12.90;;;;;;;12.87;93.77;102172.19;6307598;22;20023;-87
2022/07/05 04:35:42;;;;;;;18.42;13.48;;;;;;;12.97;93.35;102171.72;6307256;22;20504;-88
2022/07/05 04:38:07;;;;;;;20.02;13.68;;;;;;;12.96;92.30;102146.72;6307358;22;20068;-76
2022/07/05 04:40:33;;;;;;;19.10;13.43;;;;;;;13.17;92.39;102162.00;6307499;22;20007;-85
2022/07/05 04:42:58;;;;;;;19.35;13.93;;;;;;;13.27;92.50;102166.72;6307152;22;20090;-87
2022/07/05 04:45:23;;;;;;;19.52;14.15;;;;;;;13.34;91.90;102163.72;6307681;22;20018;-86
2022/07/05 04:47:48;;;;;;;18.45;13.70;;;;;;;13.39;92.60;102164.34;6307367;22;20011;-88
2022/07/05 04:50:14;;;;;;;17.90;13.30;;;;;;;13.48;92.34;102157.81;6307178;22;20039;-89
2022/07/05 04:52:39;;;;;;;18.17;13.80;;;;;;;13.46;92.45;102136.28;6306861;22;20014;-90
2022/07/05 04:55:05;;;;;;;15.85;13.48;;;;;;;13.81;90.95;102162.06;6307516;22;20074;-85
2022/07/05 04:57:38;;;;;;;18.33;13.77;;;;;;;13.70;90.45;102123.72;6307104;22;20003;-88
2022/07/05 05:00:04;;;;;;;20.00;14.35;;;;;;;13.97;88.92;102149.94;6307668;22;20008;-83
2022/07/05 05:02:29;;;;;;;18.83;14.52;;;;;;;14.24;87.64;102163.94;6307853;22;20003;-88
2022/07/05 05:04:54;;;;;;;19.50;14.57;;;;;;;14.38;87.50;102164.91;6307747;22;20009;-87
2022/07/05 05:07:20;;;;;;;18.55;13.77;;;;;;;14.50;87.09;102164.22;6307209;22;20088;-87
2022/07/05 05:09:45;;;;;;;17.40;14.10;;;;;;;14.89;87.18;102161.03;6308291;22;20414;-85
2022/07/05 05:12:10;;;;;;;16.30;13.77;;;;;;;15.02;85.28;102156.75;6308345;22;20331;-86
2022/07/05 05:14:36;;;;;;;18.65;14.27;;;;;;;15.12;85.38;102164.84;6308757;22;20003;-87
2022/07/05 05:17:01;;;;;;;17.77;13.73;;;;;;;15.31;84.76;102167.16;6308608;22;20007;-86
2022/07/05 05:19:26;;;;;;;16.85;13.65;;;;;;;15.47;82.75;102175.72;6308237;22;20022;-83
2022/07/05 05:21:52;;;;;;;18.65;13.70;;;;;;;15.51;81.48;102174.56;6308143;22;20007;-85
2022/07/05 05:24:17;;;;;;;16.73;13.15;;;;;;;15.57;80.55;102181.19;6308625;22;19999;-85
2022/07/05 05:26:42;;;;;;;17.45;13.50;;;;;;;15.72;79.72;102182.84;6308394;22;20045;-87
2022/07/05 05:29:08;;;;;;;21.58;14.13;;;;;;;15.96;78.95;102185.69;6308463;22;20321;-83
2022/07/05 05:31:33;;;;;;;20.48;14.15;;;;;;;16.01;77.77;102196.63;6280291;22;20030;-89
2022/07/05 05:33:58;;;;;;;20.13;14.30;;;;;;;15.60;77.20;102118.50;6308166;22;20056;-85
2022/07/05 05:36:24;;;;;;;17.08;14.05;;;;;;;16.08;76.22;102195.31;6308462;22;20003;-88
2022/07/05 05:38:49;;;;;;;19.75;14.65;;;;;;;16.08;76.95;102194.47;6307980;22;20003;-86
2022/07/05 05:41:14;;;;;;;17.17;13.45;;;;;;;15.98;76.44;102178.59;6308350;22;20014;-87
2022/07/05 05:43:39;;;;;;;17.50;13.52;;;;;;;15.87;75.14;102160.22;6308530;22;20074;-83
2022/07/05 05:46:05;;;;;;;19.77;14.00;;;;;;;16.00;74.98;102177.53;6308047;22;20421;-87
2022/07/05 05:48:30;;;;;;;17.30;14.02;;;;;;;16.03;75.57;102179.16;6308101;22;20455;-79
2022/07/05 05:50:56;;;;;;;16.13;13.38;;;;;;;16.22;75.79;102183.97;6308192;22;20436;-84
2022/07/05 05:53:22;;;;;;;17.02;13.70;;;;;;;16.42;75.71;102198.31;6279547;22;20007;-87
2022/07/05 05:55:47;;;;;;;18.70;13.98;;;;;;;16.51;75.97;102195.09;6308734;22;19996;-81
2022/07/05 05:58:26;;;;;;;19.35;13.18;;;;;;;16.67;75.14;102200.97;6309260;22;20371;-79
2022/07/05 06:00:52;;;;;;;17.00;13.27;;;;;;;16.87;74.54;102208.31;6281027;22;20007;-79
2022/07/05 06:03:21;;;;;;;15.25;12.82;;;;;;;16.83;73.75;102180.78;6281037;22;20003;-82
2022/07/05 06:05:47;;;;;;;16.52;12.20;;;;;;;17.19;73.77;102203.50;6308158;22;20007;-82
2022/07/05 06:08:12;;;;;;;15.73;11.80;;;;;;;17.41;71.66;102210.72;6307844;22;20007;-88
2022/07/05 06:10:38;;;;;;;15.80;11.63;;;;;;;17.53;71.20;102213.41;6308426;22;20003;-86
2022/07/05 06:13:09;;;;;;;13.60;11.23;;;;;;;17.64;71.72;102216.91;6309336;22;19999;-88
2022/07/05 06:15:35;;;;;;;15.05;11.02;;;;;;;17.55;69.65;102193.22;6308397;22;20078;-87
2022/07/05 06:18:01;;;;;;;14.43;11.48;;;;;;;17.31;69.03;102162.69;6308257;22;20096;-90
2022/07/05 06:20:30;;;;;;;13.80;10.40;;;;;;;17.66;69.35;102216.81;6282082;22;20445;-80
2022/07/05 06:22:59;;;;;;;17.05;12.13;;;;;;;16.76;69.78;102069.13;6306112;22;20022;-84
2022/07/05 06:25:37;;;;;;;14.25;11.32;;;;;;;17.73;69.66;102212.84;6308859;22;20015;-82
2022/07/05 06:28:08;;;;;;;15.18;11.45;;;;;;;18.04;69.30;102225.38;6308085;22;20325;-85
2022/07/05 06:30:39;;;;;;;13.23;11.70;;;;;;;18.09;67.78;102216.38;6307870;22;20075;-83
2022/07/05 06:33:05;;;;;;;17.75;12.70;;;;;;;18.03;67.71;102184.50;6307717;22;20321;-85
2022/07/05 06:35:31;;;;;;;14.13;10.88;;;;;;;18.57;68.17;102225.00;6308383;22;20003;-78
2022/07/05 06:38:00;;;;;;;15.02;11.65;;;;;;;18.86;65.46;102221.06;6307585;22;20007;-79
2022/07/05 06:40:30;;;;;;;15.77;12.18;;;;;;;19.02;63.59;102202.41;6307788;22;20000;-80
2022/07/05 06:42:57;;;;;;;16.00;11.68;;;;;;;19.30;62.53;102210.75;6307963;22;20006;-78
2022/07/05 06:45:24;;;;;;;15.10;11.18;;;;;;;19.36;62.37;102200.59;6307272;22;20379;-79
2022/07/05 06:47:57;;;;;;;14.30;10.43;;;;;;;19.42;61.68;102186.22;6307496;22;20014;-81
2022/07/05 06:50:23;;;;;;;13.52;10.57;;;;;;;19.17;60.27;102169.81;6307713;22;20003;-76
2022/07/05 06:52:48;;;;;;;14.82;10.95;;;;;;;19.86;60.74;102226.41;6307539;22;20488;-84
2022/07/05 06:55:16;;;;;;;13.43;10.50;;;;;;;20.44;59.42;102229.56;6307641;22;20325;-81
2022/07/05 06:57:43;;;;;;;14.95;11.07;;;;;;;21.32;56.37;102224.72;6279591;22;20064;-79
2022/07/05 07:00:10;;;;;;;13.02;9.60;;;;;;;22.00;53.66;102225.72;6307693;22;20004;-80
2022/07/05 07:02:35;;;;;;;14.52;9.98;;;;;;;22.35;52.14;102179.63;6280023;22;20086;-77
2022/07/05 07:05:00;;;;;;;14.25;9.50;;;;;;;22.73;51.28;102227.94;6307349;22;20038;-79
2022/07/05 07:10:09;;;;;;;14.23;8.13;;;;;;;23.58;50.05;102227.75;6307225;22;20440;-77
2022/07/05 07:12:35;;;;;;;9.32;6.53;;;;;;;23.32;50.55;102229.44;6306806;22;20023;-74
2022/07/05 07:15:04;;;;;;;10.63;7.78;;;;;;;23.61;50.49;102177.41;6307374;22;20334;-75
2022/07/05 07:17:29;;;;;;;13.98;7.90;;;;;;;24.07;49.16;102230.09;6307414;22;20003;-75
2022/07/05 07:19:55;;;;;;;10.73;7.35;;;;;;;23.81;48.71;102224.75;6307228;22;20034;-76
2022/07/05 07:22:20;;;;;;;19.02;8.15;;;;;;;23.83;50.11;102225.44;6306962;22;20076;-77
2022/07/05 07:24:45;;;;;;;13.57;7.97;;;;;;;23.68;49.67;102217.19;6306976;22;20003;-79
2022/07/05 07:27:14;;;;;;;11.52;7.60;;;;;;;23.84;49.90;102229.72;6306846;22;20082;-79
2022/07/05 07:29:52;;;;;;;11.00;8.27;;;;;;;23.92;50.11;102200.78;6306854;22;20432;-79
2022/07/05 07:32:37;;;;;;;12.15;7.72;;;;;;;23.95;50.37;102230.31;6305885;22;20010;-84
2022/07/05 07:35:03;;;;;;;12.80;8.05;;;;;;;23.30;50.77;102194.47;6306066;22;20011;-81
2022/07/05 07:37:28;;;;;;;11.75;6.90;;;;;;;23.26;51.97;102245.81;6306886;22;20397;-79
2022/07/05 07:39:54;;;;;;;9.82;6.25;;;;;;;22.99;52.54;102244.78;6307088;22;20010;-80
2022/07/05 07:42:36;;;;;;;10.63;7.22;;;;;;;22.55;53.16;102190.97;6306775;22;20003;-79
2022/07/05 07:45:49;;;;;;;11.00;7.47;;;;;;;22.93;54.00;102250.66;6306536;22;20104;-78
2022/07/05 07:49:09;;;;;;;12.85;7.70;;;;;;;21.56;54.43;102047.47;6279281;22;20014;-78
2022/07/05 07:54:52;;;;;;;14.68;6.22;;;;;;;21.84;54.78;102128.13;6268851;22;20052;-78
2022/07/05 07:57:29;;;;;;;10.98;6.95;;;;;;;21.34;55.70;102078.28;6306836;22;19999;-80
2022/07/05 08:00:05;;;;;;;13.35;6.95;;;;;;;21.16;55.16;102051.81;6306829;22;20030;-83
2022/07/05 08:12:55;;;;;;;13.50;6.00;;;;;;;22.78;55.35;102257.28;6306790;22;20022;-82
2022/07/05 08:15:20;;;;;;;12.95;6.75;;;;;;;21.95;55.44;102121.91;6306665;22;20008;-85
2022/07/05 08:23:35;;;;;;;12.77;7.03;;;;;;;21.56;54.76;102077.19;6305826;22;20459;-82
2022/07/05 08:26:00;;;;;;;10.18;6.13;;;;;;;21.73;55.88;102088.84;6306531;22;20102;-81
2022/07/05 08:28:26;;;;;;;12.05;7.25;;;;;;;21.63;56.08;102080.09;6306836;22;20429;-83
2022/07/05 08:31:01;;;;;;;;;;;;;;;;;;;;;
2022/07/05 08:33:30;;;;;;;19.63;7.25;;;;;;;21.75;54.81;102084.25;6306183;22;20078;-79
2022/07/05 08:36:15;;;;;;;10.57;6.07;;;;;;;22.74;56.49;102263.84;6306500;22;19999;-80
2022/07/05 08:38:53;;;;;;;11.57;6.40;;;;;;;21.69;56.80;102125.06;6306016;22;20007;-80
2022/07/05 08:41:20;;;;;;;11.57;7.10;;;;;;;22.37;56.96;102234.75;6306622;22;20421;-87
2022/07/05 08:43:51;;;;;;;13.02;6.88;;;;;;;21.80;55.65;102125.91;6306765;22;19999;-78
2022/07/05 08:46:17;;;;;;;13.63;7.03;;;;;;;22.59;56.56;102250.25;6308578;22;20007;-78
2022/07/05 08:52:20;;;;;;;12.50;6.82;;;;;;;22.35;58.02;102176.19;6308546;22;20102;-81
2022/07/05 08:54:55;;;;;;;16.52;7.03;;;;;;;21.88;56.88;102142.66;6308422;22;20003;-81
2022/07/05 08:57:29;;;;;;;12.13;6.82;;;;;;;21.14;57.94;102048.50;6308509;22;20003;-82
2022/07/05 09:00:19;;;;;;;9.90;6.20;;;;;;;22.28;56.16;102244.31;6308591;22;20436;-85
2022/07/05 09:03:18;;;;;;;14.40;6.57;;;;;;;21.95;58.43;102175.34;6308493;22;20003;-82
2022/07/05 09:06:02;;;;;;;11.80;8.05;;;;;;;21.60;61.07;102088.25;6183728;23;20071;-83
2022/07/05 09:08:55;;;;;;;13.35;6.85;;;;;;;22.13;58.30;102138.69;6183948;23;20009;-82
2022/07/05 09:12:07;;;;;;;12.75;7.03;;;;;;;22.73;57.79;102243.75;6183895;23;20076;-83
2022/07/05 09:14:54;;;;;;;16.92;8.88;;;;;;;22.29;56.37;102178.38;6185191;23;20347;-86
2022/07/05 09:17:19;;;;;;;11.63;6.45;;;;;;;22.45;57.64;102182.25;6183536;23;20040;-81
2022/07/05 09:20:07;;;;;;;12.80;6.20;;;;;;;23.00;55.54;102249.09;6183537;23;20075;-81
2022/07/05 09:22:58;;;;;;;9.20;5.25;;;;;;;22.98;53.96;102214.16;6173741;23;20096;-78
2022/07/05 09:28:18;;;;;;;13.75;8.27;;;;;;;22.14;54.66;102123.72;6152981;23;20013;-80
2022/07/05 09:31:37;;;;;;;12.88;6.05;;;;;;;23.15;55.87;102250.31;6154104;23;20009;-81
2022/07/05 09:34:12;;;;;;;10.25;5.68;;;;;;;23.10;54.18;102252.53;6155424;23;20434;-82
2022/07/05 09:39:54;;;;;;;11.47;6.00;;;;;;;22.74;55.39;102259.41;6339367;22;20030;-84
2022/07/05 09:42:28;;;;;;;12.02;5.15;;;;;;;22.14;55.88;102107.94;6339161;22;20065;-82
2022/07/05 09:44:57;;;;;;;9.48;4.85;;;;;;;22.14;51.36;102074.56;6338759;22;20009;-86
2022/07/05 09:51:12;;;;;;;9.85;4.13;;;;;;;23.24;49.71;102258.31;6338707;22;20017;-84
2022/07/05 10:00:47;;;;;;;7.78;4.30;;;;;;;21.78;49.65;102057.69;6156054;23;20056;-83
2022/07/05 10:04:01;;;;;;;7.90;4.88;;;;;;;22.69;51.75;102264.25;6153831;23;20002;-85
2022/07/05 10:10:14;;;;;;;8.60;5.13;;;;;;;21.90;52.27;102137.25;6154160;23;20490;-81
2022/07/05 10:12:40;;;;;;;9.07;4.65;;;;;;;22.45;52.75;102255.97;6128719;23;20005;-82
2022/07/05 10:15:23;;;;;;;7.80;4.30;;;;;;;21.62;52.99;102112.59;6153502;23;20115;-85
2022/07/05 10:18:46;;;;;;;9.00;4.38;;;;;;;22.80;53.04;102248.28;6153566;23;20036;-85
2022/07/05 10:24:16;;;;;;;8.35;4.07;;;;;;;22.63;51.50;102180.56;6153734;23;20016;-84
2022/07/05 10:30:45;;;;;;;7.35;4.95;;;;;;;22.83;52.80;102240.13;6274148;22;20019;-87
2022/07/05 10:33:27;;;;;;;8.98;5.10;;;;;;;22.35;51.06;102192.78;6273780;22;20015;-86
2022/07/05 10:36:05;;;;;;;10.68;4.50;;;;;;;21.87;51.87;102125.22;6274255;22;20329;-90
2022/07/05 10:38:57;;;;;;;6.93;3.75;;;;;;;22.73;48.82;102249.84;6340602;22;20015;-91
2022/07/05 10:44:50;;;;;;;7.30;3.03;;;;;;;22.95;46.77;102238.16;6338897;22;20132;-86
2022/07/05 10:47:18;;;;;;;5.22;2.35;;;;;;;22.14;46.83;102110.56;6338999;22;20010;-86
2022/07/05 10:49:43;;;;;;;8.20;3.30;;;;;;;21.94;49.03;102105.28;6311008;22;20374;-88
2022/07/05 10:52:37;;;;;;;7.43;2.80;;;;;;;22.52;49.76;102192.09;6311204;22;20011;-86
2022/07/05 10:58:22;;;;;;;5.93;3.08;;;;;;;23.37;48.73;102237.72;6284966;22;20464;-89
2022/07/05 11:08:05;;;;;;;9.02;3.28;;;;;;;22.13;44.21;102057.13;6306253;22;20353;-82
2022/07/05 11:14:34;;;;;;;7.60;2.60;;;;;;;23.17;46.38;102258.88;6306835;22;20011;-85
2022/07/05 11:23:44;;;;;;;7.30;3.03;;;;;;;21.95;49.70;102203.44;6307993;22;20034;-82
2022/07/05 11:26:16;;;;;;;8.10;3.05;;;;;;;22.21;47.74;102267.72;6306944;22;20082;-81
2022/07/05 11:28:47;;;;;;;4.85;3.20;;;;;;;21.66;48.12;102204.22;6307321;22;20003;-79
2022/07/05 11:31:32;;;;;;;10.30;3.78;;;;;;;21.53;47.03;102182.59;6307445;22;19999;-80
2022/07/05 11:34:12;;;;;;;6.28;3.03;;;;;;;21.96;48.18;102190.16;6306906;22;20003;-82
2022/07/05 11:36:37;;;;;;;8.23;3.30;;;;;;;22.76;49.10;102254.81;6307524;22;20053;-78
2022/07/05 11:39:08;;;;;;;8.07;3.47;;;;;;;22.94;48.00;102254.94;6307423;22;19999;-81
2022/07/05 11:41:35;;;;;;;5.68;3.25;;;;;;;22.87;47.68;102233.59;6307152;22;20026;-75
2022/07/05 11:44:01;;;;;;;6.22;3.42;;;;;;;22.94;46.33;102236.50;6307084;22;20417;-78
2022/07/05 11:46:28;;;;;;;8.57;4.22;;;;;;;23.05;44.25;102212.63;6306888;22;20094;-87
2022/07/05 11:48:54;;;;;;;5.78;3.60;;;;;;;23.14;46.09;102242.53;6307369;22;20328;-87
2022/07/05 11:51:19;;;;;;;6.45;3.28;;;;;;;22.81;47.11;102249.09;6307119;22;20070;-86
2022/07/05 11:53:45;;;;;;;6.53;3.50;;;;;;;22.52;46.32;102250.00;6307177;22;20004;-86
2022/07/05 11:56:13;;;;;;;8.23;3.25;;;;;;;22.29;46.43;102252.06;6307109;22;20368;-77
2022/07/05 11:58:38;;;;;;;5.63;3.25;;;;;;;22.18;45.88;102248.75;6307286;22;20074;-90
2022/07/05 12:01:05;;;;;;;8.02;2.80;;;;;;;22.09;45.08;102253.03;6307523;22;20023;-90
2022/07/05 12:03:31;;;;;;;4.05;2.45;;;;;;;22.13;45.69;102238.66;6307406;22;20059;-88
2022/07/05 12:05:57;;;;;;;5.43;2.40;;;;;;;22.55;44.84;102241.81;6306706;22;20098;-89
2022/07/05 12:08:23;;;;;;;4.60;2.30;;;;;;;22.72;47.02;102210.47;6306818;22;19999;-86
2022/07/05 12:13:47;;;;;;;5.30;1.95;;;;;;;23.18;41.83;102199.94;6306922;22;20567;-89
2022/07/05 12:16:13;;;;;;;3.13;2.10;;;;;;;23.21;41.16;102205.91;6306648;22;20433;-88
2022/07/05 12:18:49;;;;;;;4.45;2.08;;;;;;;23.12;43.60;102213.72;6306692;22;20022;-85
2022/07/05 12:21:15;;;;;;;5.45;2.10;;;;;;;23.11;42.53;102230.50;6306764;22;20003;-89
2022/07/05 12:23:44;;;;;;;3.33;2.00;;;;;;;23.03;43.90;102234.81;6306955;22;20327;-79
2022/07/05 12:26:11;;;;;;;4.82;2.00;;;;;;;23.08;44.86;102245.75;6306668;22;20003;-89
2022/07/05 12:28:37;;;;;;;5.63;1.90;;;;;;;22.63;43.77;102182.38;6306425;22;20014;-87
2022/07/05 12:31:22;;;;;;;3.63;1.85;;;;;;;22.56;45.63;102216.31;6306929;22;19999;-86
2022/07/05 12:33:49;;;;;;;3.72;2.03;;;;;;;22.48;45.00;102243.34;6306678;22;20421;-89
2022/07/05 12:36:15;;;;;;;2.53;1.50;;;;;;;22.52;45.64;102243.91;6306618;22;19999;-85
2022/07/05 12:38:42;;;;;;;4.45;1.48;;;;;;;22.38;41.61;102213.56;6307061;22;20000;-89
2022/07/05 12:41:08;;;;;;;4.47;1.42;;;;;;;22.52;41.18;102205.25;6306257;22;20003;-81
2022/07/05 12:43:48;;;;;;;4.03;1.40;;;;;;;22.60;40.95;102207.16;6306974;22;20078;-77
2022/07/05 12:46:38;;;;;;;4.15;1.30;;;;;;;23.34;42.70;102228.31;6306379;22;20087;-91
2022/07/05 12:49:03;;;;;;;3.40;1.40;;;;;;;23.47;40.07;102241.13;6306887;22;20003;-85